Time;durP1;ratioP1;P1;durP2;ratioP2;P2;SDS_P1;SDS_P2;PMS_P1;PMS_P2;Temp;Humidity;BMP_temperature;BMP_pressure;BME280_temperature;BME280_humidity;BME280_pressure;Samples;Min_cycle;Max_cycle;Signal;HPM_P1;HPM_P2
2023/12/28 00:00:46;;;;;;;8.23;3.77;;;3.00;99.90;;;3.76;100.00;98012.69;5047274;28;20458;-80
2023/12/28 00:03:16;;;;;;;5.40;3.57;;;3.10;99.90;;;3.82;100.00;97994.00;5049097;28;20521;-81
2023/12/28 00:05:44;;;;;;;6.10;4.10;;;3.10;99.90;;;3.78;100.00;97995.25;5047655;28;20460;-80
2023/12/28 00:08:13;;;;;;;4.03;3.43;;;3.10;99.90;;;3.78;100.00;98001.25;5047571;28;20466;-79
2023/12/28 00:10:42;;;;;;;5.87;3.90;;;3.10;99.90;;;3.83;100.00;98001.63;5045551;28;20469;-80
2023/12/28 00:13:10;;;;;;;5.83;3.10;;;3.20;99.90;;;3.91;100.00;97996.53;5047365;28;20469;-79
2023/12/28 00:15:39;;;;;;;9.70;3.70;;;3.20;99.90;;;3.96;100.00;97999.47;5045789;28;20948;-78
2023/12/28 00:18:07;;;;;;;6.80;4.07;;;3.30;99.90;;;4.01;100.00;97991.28;5044643;28;20460;-80
2023/12/28 00:20:37;;;;;;;5.07;3.80;;;3.40;99.90;;;4.09;100.00;97978.44;5046385;28;20463;-80
2023/12/28 00:23:06;;;;;;;6.10;3.47;;;3.40;99.90;;;4.15;100.00;97988.19;5048412;28;20467;-80
2023/12/28 00:25:35;;;;;;;7.77;4.07;;;3.40;99.90;;;4.16;100.00;97989.00;5045099;28;21054;-80
2023/12/28 00:28:04;;;;;;;5.73;4.00;;;3.50;99.90;;;4.22;100.00;97997.00;5045678;28;20470;-80
2023/12/28 00:30:33;;;;;;;7.30;4.43;;;3.60;99.90;;;4.29;100.00;97986.84;5045138;28;20550;-80
2023/12/28 00:33:02;;;;;;;4.40;3.57;;;3.60;99.90;;;4.30;100.00;97986.72;5047029;28;20466;-80
2023/12/28 00:35:31;;;;;;;8.60;4.80;;;3.70;99.90;;;4.33;100.00;97994.19;5044898;28;20515;-80
2023/12/28 00:38:00;;;;;;;6.93;3.70;;;3.70;99.90;;;4.37;100.00;97997.28;5047193;28;21240;-79
2023/12/28 00:40:31;;;;;;;5.27;3.63;;;3.70;99.90;;;4.42;100.00;98001.03;5048530;28;20558;-79
2023/12/28 00:42:59;;;;;;;10.63;4.00;;;3.80;99.90;;;4.49;100.00;97996.06;5046999;28;20462;-80
2023/12/28 00:45:28;;;;;;;8.00;4.57;;;3.80;99.90;;;4.50;100.00;98008.88;5044324;28;20460;-80
2023/12/28 00:47:56;;;;;;;4.70;3.70;;;3.80;99.90;;;4.51;100.00;98010.47;5048793;28;21027;-80
2023/12/28 00:50:27;;;;;;;7.50;4.27;;;3.90;99.90;;;4.58;100.00;98005.53;5045106;28;20560;-80
2023/12/28 00:52:55;;;;;;;4.33;3.57;;;3.90;99.90;;;4.66;100.00;98007.34;5046466;28;20453;-80
2023/12/28 00:55:25;;;;;;;5.33;3.63;;;4.00;99.90;;;4.71;100.00;98018.09;5046327;28;20508;-80
2023/12/28 00:57:54;;;;;;;7.57;4.13;;;4.00;99.90;;;4.74;100.00;98020.38;5044650;28;20476;-80
2023/12/28 01:00:22;;;;;;;7.17;4.20;;;4.10;99.90;;;4.80;100.00;98030.13;5043161;28;20465;-80
2023/12/28 01:02:51;;;;;;;9.13;4.73;;;4.20;99.90;;;4.83;100.00;98022.88;5042076;28;20577;-79
2023/12/28 01:05:20;;;;;;;7.20;4.20;;;4.30;99.90;;;4.91;100.00;98024.69;5044796;28;20468;-80
2023/12/28 01:07:49;;;;;;;7.63;4.40;;;4.40;99.90;;;5.01;100.00;98028.00;5045082;28;20572;-80
2023/12/28 01:10:17;;;;;;;8.53;4.33;;;4.50;99.90;;;5.07;100.00;98017.03;5045658;28;20452;-80
2023/12/28 01:12:47;;;;;;;6.30;4.10;;;4.60;99.90;;;5.12;100.00;98009.63;5043912;28;20464;-80
2023/12/28 01:15:17;;;;;;;7.93;3.90;;;4.60;99.90;;;5.17;100.00;98022.13;5044956;28;20584;-80
2023/12/28 01:17:46;;;;;;;8.00;4.50;;;4.60;99.90;;;5.22;100.00;98035.41;5046494;28;20496;-80
2023/12/28 01:20:15;;;;;;;6.37;4.10;;;4.70;99.90;;;5.27;100.00;98039.19;5045610;28;20475;-80
2023/12/28 01:22:43;;;;;;;7.70;4.20;;;4.80;99.90;;;5.33;100.00;98037.75;5046197;28;20471;-80
2023/12/28 01:25:12;;;;;;;11.03;3.83;;;4.80;99.90;;;5.38;100.00;98045.91;5048263;28;20465;-80
2023/12/28 01:27:40;;;;;;;7.43;4.40;;;4.90;99.90;;;5.43;100.00;98048.81;5049201;28;20891;-80
2023/12/28 01:30:11;;;;;;;6.50;4.40;;;5.00;99.90;;;5.49;100.00;98049.00;5049129;28;20469;-80
2023/12/28 01:32:40;;;;;;;6.87;3.87;;;5.00;99.90;;;5.56;100.00;98047.41;5050239;28;20955;-80
2023/12/28 01:35:09;;;;;;;8.57;3.70;;;5.10;99.90;;;5.60;100.00;98058.31;5050129;28;20531;-79
2023/12/28 01:37:37;;;;;;;8.57;4.27;;;5.20;99.90;;;5.68;100.00;98067.91;5048270;28;20510;-80
2023/12/28 01:40:09;;;;;;;12.13;4.20;;;5.20;99.90;;;5.74;100.00;98068.09;5050220;28;20827;-80
2023/12/28 01:42:38;;;;;;;5.13;3.80;;;5.30;99.90;;;5.78;100.00;98064.22;5048539;28;20504;-80
2023/12/28 01:45:09;;;;;;;6.47;4.17;;;5.40;99.90;;;5.82;100.00;98059.53;5048890;28;20472;-80
2023/12/28 01:47:38;;;;;;;4.10;3.50;;;5.40;99.90;;;5.87;100.00;98078.06;5047414;28;20461;-80
2023/12/28 01:50:08;;;;;;;6.00;4.13;;;5.40;99.90;;;5.90;100.00;98077.75;5047427;28;20460;-80
2023/12/28 01:52:37;;;;;;;6.17;3.60;;;5.60;99.90;;;5.94;100.00;98094.63;5046952;28;20534;-81
2023/12/28 01:55:09;;;;;;;6.30;4.20;;;5.60;99.90;;;5.97;100.00;98083.97;5046606;28;20493;-80
2023/12/28 01:57:37;;;;;;;7.10;3.57;;;5.60;99.90;;;5.98;100.00;98090.75;5047696;28;20987;-79
2023/12/28 02:00:08;;;;;;;6.17;3.03;;;5.70;99.90;;;6.02;100.00;98092.06;5048758;28;20464;-79
2023/12/28 02:02:39;;;;;;;7.63;3.70;;;5.70;99.90;;;6.04;100.00;98095.31;5048074;28;20457;-80
2023/12/28 02:05:08;;;;;;;5.10;3.60;;;5.70;99.90;;;6.07;100.00;98089.81;5047731;28;20493;-80
2023/12/28 02:07:38;;;;;;;6.30;3.80;;;5.70;99.90;;;6.10;100.00;98099.88;5046779;28;20892;-80
2023/12/28 02:10:08;;;;;;;4.40;3.30;;;5.70;99.90;;;6.10;100.00;98097.28;5049162;28;20818;-80
2023/12/28 02:12:37;;;;;;;10.33;4.40;;;5.80;99.90;;;6.12;100.00;98105.72;5049528;28;20952;-80
2023/12/28 02:15:07;;;;;;;7.90;3.70;;;5.70;99.90;;;6.12;100.00;98105.72;5047304;28;20541;-80
2023/12/28 02:17:48;;;;;;;5.77;3.70;;;5.80;99.90;;;6.14;100.00;98097.78;5049197;28;20471;-80
2023/12/28 02:20:20;;;;;;;5.70;3.90;;;5.90;99.90;;;6.17;100.00;98100.88;5047580;28;20464;-80
2023/12/28 02:22:49;;;;;;;7.20;3.80;;;5.80;99.90;;;6.18;100.00;98105.09;5049734;28;20566;-79
2023/12/28 02:25:19;;;;;;;6.40;3.57;;;5.80;99.90;;;6.19;100.00;98096.34;5049221;28;21206;-80
2023/12/28 02:27:50;;;;;;;4.53;3.60;;;5.80;99.90;;;6.23;100.00;98096.84;5048252;28;21138;-80
2023/12/28 02:30:22;;;;;;;7.97;3.70;;;5.80;99.90;;;6.22;100.00;98085.63;5047257;28;20461;-79
2023/12/28 02:33:08;;;;;;;5.17;3.50;;;5.80;99.90;;;6.21;100.00;98085.81;5046208;28;20465;-80
2023/12/28 02:35:44;;;;;;;6.80;3.87;;;5.90;99.90;;;6.23;100.00;98069.09;5046209;28;20476;-80
2023/12/28 02:38:16;;;;;;;5.17;3.20;;;5.90;99.90;;;6.25;100.00;98077.53;5046561;28;20465;-80
2023/12/28 02:40:48;;;;;;;5.67;3.60;;;5.90;99.90;;;6.27;100.00;98080.78;5046329;28;20500;-80
2023/12/28 02:43:17;;;;;;;5.23;3.37;;;5.90;99.90;;;6.27;100.00;98070.41;5048050;28;20471;-80
2023/12/28 02:45:45;;;;;;;4.50;3.10;;;5.90;99.90;;;6.33;100.00;98068.94;5045998;28;20468;-80
2023/12/28 02:48:14;;;;;;;6.57;3.80;;;5.90;99.90;;;6.34;100.00;98050.63;5045840;28;20469;-79
2023/12/28 02:50:43;;;;;;;4.20;3.30;;;5.90;99.90;;;6.36;100.00;98059.06;5046747;28;20472;-80
2023/12/28 02:53:13;;;;;;;6.20;2.90;;;5.90;99.90;;;6.34;100.00;98071.38;5048894;28;20472;-79
2023/12/28 02:55:41;;;;;;;3.63;3.07;;;6.00;99.90;;;6.36;100.00;98066.84;5047041;28;20500;-79
2023/12/28 02:58:11;;;;;;;4.30;3.13;;;6.00;99.90;;;6.37;100.00;98057.28;5045412;28;20485;-78
2023/12/28 03:00:40;;;;;;;5.13;3.43;;;6.00;99.90;;;6.37;100.00;98052.88;5046969;28;20488;-80
2023/12/28 03:03:09;;;;;;;2.90;2.60;;;6.00;99.90;;;6.40;100.00;98057.75;5045875;28;20469;-80
2023/12/28 03:05:37;;;;;;;3.80;3.03;;;6.10;99.90;;;6.42;100.00;98068.78;5046707;28;20461;-80
2023/12/28 03:08:06;;;;;;;4.07;2.73;;;6.10;99.90;;;6.42;100.00;98065.41;5044043;28;20465;-79
2023/12/28 03:10:35;;;;;;;6.30;3.60;;;6.10;99.90;;;6.42;100.00;98068.78;5048537;28;20469;-80
2023/12/28 03:13:04;;;;;;;4.50;3.40;;;6.10;99.90;;;6.43;100.00;98067.81;5048651;28;20473;-80
2023/12/28 03:15:34;;;;;;;6.70;3.50;;;6.20;99.90;;;6.44;100.00;98074.66;5050216;28;20509;-80
2023/12/28 03:18:03;;;;;;;5.80;4.10;;;6.20;99.90;;;6.45;100.00;98065.09;5047559;28;20465;-80
2023/12/28 03:20:32;;;;;;;6.10;3.17;;;6.20;99.90;;;6.41;100.00;98062.00;5048691;28;20548;-80
2023/12/28 03:23:01;;;;;;;7.77;3.60;;;6.20;99.90;;;6.44;100.00;98060.84;5046270;28;20457;-80
2023/12/28 03:25:29;;;;;;;5.07;3.90;;;6.10;99.90;;;6.48;100.00;98068.16;5045017;28;20464;-79
2023/12/28 03:27:58;;;;;;;4.93;3.57;;;6.20;99.90;;;6.49;100.00;98069.00;5047189;28;20457;-80
2023/12/28 03:30:27;;;;;;;5.07;3.60;;;6.20;99.90;;;6.50;100.00;98066.22;5047331;28;20466;-80
2023/12/28 03:32:57;;;;;;;4.60;3.73;;;6.10;99.90;;;6.52;100.00;98053.91;5049156;28;20504;-80
2023/12/28 03:35:25;;;;;;;5.77;4.00;;;6.10;99.90;;;6.55;100.00;98063.13;5046551;28;20496;-79
2023/12/28 03:37:54;;;;;;;5.57;3.30;;;6.20;99.90;;;6.58;100.00;98068.00;5046217;28;20641;-80
2023/12/28 03:40:23;;;;;;;5.93;3.80;;;6.20;99.90;;;6.59;100.00;98062.63;5043810;28;20461;-80
2023/12/28 03:42:52;;;;;;;5.90;3.77;;;6.20;99.90;;;6.61;100.00;98062.50;5045167;28;20473;-80
2023/12/28 03:45:20;;;;;;;5.53;3.30;;;6.10;99.90;;;6.65;100.00;98052.59;5043899;28;20476;-80
2023/12/28 03:47:51;;;;;;;4.90;4.03;;;6.20;99.90;;;6.62;100.00;98064.13;5045628;28;20467;-80
2023/12/28 03:50:21;;;;;;;4.07;3.67;;;6.20;99.90;;;6.61;100.00;98043.50;5047243;28;20533;-80
2023/12/28 03:52:49;;;;;;;5.00;3.30;;;6.20;99.90;;;6.64;100.00;98038.78;5047571;28;20478;-79
2023/12/28 03:55:18;;;;;;;5.67;3.73;;;6.30;99.90;;;6.67;100.00;98046.25;5046888;28;20473;-80
2023/12/28 03:57:47;;;;;;;5.60;3.93;;;6.20;99.90;;;6.66;100.00;98043.81;5047604;28;20479;-80
2023/12/28 04:00:16;;;;;;;8.13;3.83;;;6.20;99.90;;;6.70;100.00;98047.72;5046492;28;20660;-80
2023/12/28 04:02:45;;;;;;;7.83;3.70;;;6.20;99.90;;;6.71;100.00;98057.13;5046053;28;20824;-80
2023/12/28 04:05:16;;;;;;;4.30;3.30;;;6.40;99.90;;;6.70;100.00;98051.13;5044786;28;20492;-80
2023/12/28 04:07:46;;;;;;;6.60;3.97;;;6.40;99.90;;;6.73;100.00;98055.19;5046643;28;20483;-80
2023/12/28 04:10:30;;;;;;;6.33;4.13;;;6.20;99.90;;;6.74;100.00;98049.81;5048250;28;20461;-78
2023/12/28 04:12:59;;;;;;;17.93;4.87;;;6.30;99.90;;;6.77;100.00;98048.69;5041893;28;20464;-79
2023/12/28 04:15:27;;;;;;;5.33;3.70;;;6.30;99.90;;;6.81;100.00;98047.38;5043496;28;20461;-80
2023/12/28 04:17:56;;;;;;;5.63;3.63;;;6.40;99.90;;;6.81;100.00;98057.78;5045345;28;20884;-79
2023/12/28 04:20:25;;;;;;;5.57;4.20;;;6.50;99.90;;;6.83;100.00;98042.84;5045598;28;21166;-80
2023/12/28 04:22:55;;;;;;;4.80;3.70;;;6.50;99.90;;;6.85;100.00;98051.28;5045301;28;20457;-80
2023/12/28 04:25:24;;;;;;;5.37;3.97;;;6.50;99.90;;;6.87;100.00;98037.13;5042747;28;20462;-80
2023/12/28 04:27:52;;;;;;;14.33;8.10;;;6.50;99.90;;;6.89;100.00;98049.97;5047304;28;20464;-80
2023/12/28 04:30:21;;;;;;;9.20;4.03;;;6.50;99.90;;;6.91;100.00;98040.22;5039596;28;20465;-80
2023/12/28 04:32:49;;;;;;;4.33;3.33;;;6.50;99.90;;;6.96;100.00;98040.56;5044762;28;20461;-79
2023/12/28 04:35:18;;;;;;;8.60;4.17;;;6.50;99.90;;;6.98;100.00;98043.78;5044928;28;20481;-80
2023/12/28 04:37:47;;;;;;;3.73;3.17;;;6.50;99.90;;;6.99;100.00;98040.22;5048025;28;20511;-80
2023/12/28 04:40:17;;;;;;;4.30;2.90;;;6.50;99.90;;;7.01;100.00;98036.47;5046858;28;20836;-80
2023/12/28 04:42:45;;;;;;;3.37;2.60;;;6.60;99.90;;;7.06;100.00;98043.78;5044121;28;20472;-80
2023/12/28 04:45:14;;;;;;;5.00;2.80;;;6.70;99.90;;;7.10;100.00;98052.88;5045305;28;20565;-80
2023/12/28 04:47:43;;;;;;;3.20;2.43;;;6.70;99.90;;;7.13;100.00;98055.16;5046455;28;20547;-79
2023/12/28 04:50:11;;;;;;;4.70;2.37;;;6.70;99.90;;;7.15;100.00;98063.59;5046637;28;20461;-80
2023/12/28 04:52:41;;;;;;;2.53;2.23;;;6.80;99.90;;;7.19;100.00;98067.50;5042284;28;20551;-80
2023/12/28 04:55:09;;;;;;;9.07;6.80;;;6.80;99.90;;;7.21;100.00;98070.75;5046435;28;20464;-78
2023/12/28 04:57:39;;;;;;;4.93;4.03;;;6.80;99.90;;;7.24;100.00;98065.22;5043316;28;20505;-80
2023/12/28 05:00:10;;;;;;;2.43;1.87;;;6.80;99.90;;;7.25;100.00;98056.44;5047987;28;20464;-80
2023/12/28 05:02:39;;;;;;;2.67;2.27;;;6.80;99.90;;;7.27;100.00;98064.88;5048124;28;20477;-80
2023/12/28 05:05:11;;;;;;;3.20;2.50;;;6.90;99.90;;;7.28;100.00;98061.31;5047942;28;20547;-80
2023/12/28 05:07:41;;;;;;;4.77;3.00;;;7.00;99.90;;;7.31;100.00;98062.75;5045118;28;20468;-80
2023/12/28 05:10:10;;;;;;;2.50;2.27;;;7.00;99.90;;;7.32;100.00;98062.63;5046437;28;20461;-80
2023/12/28 05:12:40;;;;;;;3.63;2.60;;;7.00;99.90;;;7.35;100.00;98061.47;5044938;28;20981;-80
2023/12/28 05:15:12;;;;;;;2.30;2.07;;;6.90;99.90;;;7.38;100.00;98061.94;5044762;28;20533;-80
2023/12/28 05:17:41;;;;;;;12.23;6.80;;;6.90;99.90;;;7.37;100.00;98068.09;5047279;28;21080;-80
2023/12/28 05:20:10;;;;;;;3.83;3.00;;;7.00;99.90;;;7.37;100.00;98068.09;5046183;28;20554;-79
2023/12/28 05:22:39;;;;;;;4.50;2.13;;;7.10;99.90;;;7.40;100.00;98077.38;5046698;28;20461;-80
2023/12/28 05:25:08;;;;;;;3.80;2.17;;;7.10;99.90;;;7.43;100.00;98071.81;5047794;28;20864;-80
2023/12/28 05:27:36;;;;;;;2.50;2.20;;;7.00;99.90;;;7.43;100.00;98066.63;5047026;28;20485;-80
2023/12/28 05:30:08;;;;;;;43.30;19.90;;;7.10;99.90;;;7.44;100.00;98071.66;5045861;28;20496;-80
2023/12/28 05:32:37;;;;;;;3.97;2.53;;;7.10;99.90;;;7.45;100.00;98072.50;5048402;28;20456;-80
2023/12/28 05:35:07;;;;;;;3.40;2.43;;;7.10;99.90;;;7.50;100.00;98076.19;5047624;28;20841;-78
2023/12/28 05:37:36;;;;;;;2.57;2.07;;;7.10;99.90;;;7.51;100.00;98059.63;5052406;28;20500;-79
2023/12/28 05:40:06;;;;;;;2.37;2.17;;;7.10;99.90;;;7.54;100.00;98056.69;5049635;28;20453;-79
2023/12/28 05:42:35;;;;;;;3.23;2.10;;;7.10;99.90;;;7.56;100.00;98062.53;5051358;28;20468;-78
2023/12/28 05:45:04;;;;;;;2.73;2.10;;;7.10;99.90;;;7.56;100.00;98064.34;5049325;28;20981;-79
2023/12/28 05:47:34;;;;;;;2.10;1.90;;;7.20;99.90;;;7.59;100.00;98062.22;5049276;28;20465;-78
2023/12/28 05:50:03;;;;;;;2.80;2.40;;;7.20;99.90;;;7.62;100.00;98063.66;5049797;28;20457;-78
2023/12/28 05:52:32;;;;;;;2.80;2.10;;;7.10;99.90;;;7.64;100.00;98058.25;5049961;28;20481;-79
2023/12/28 05:55:00;;;;;;;3.27;2.30;;;7.10;99.90;;;7.68;100.00;98056.94;5048386;28;20453;-79
2023/12/28 05:57:30;;;;;;;4.00;2.33;;;7.20;99.90;;;7.67;100.00;98052.75;5048698;28;20496;-79
2023/12/28 05:59:59;;;;;;;5.17;2.60;;;7.30;99.90;;;7.71;100.00;98057.44;5051514;28;20532;-77
2023/12/28 06:02:28;;;;;;;4.00;3.20;;;7.30;99.90;;;7.73;100.00;98050.28;5050695;28;20473;-78
2023/12/28 06:04:58;;;;;;;6.43;2.13;;;7.20;99.90;;;7.74;100.00;98056.31;5048664;28;20951;-78
2023/12/28 06:07:27;;;;;;;2.97;2.60;;;7.30;99.90;;;7.75;100.00;98060.50;5047297;28;20489;-79
2023/12/28 06:09:55;;;;;;;3.70;2.60;;;7.30;99.90;;;7.77;100.00;98061.16;5050988;28;20469;-79
2023/12/28 06:12:24;;;;;;;3.83;2.20;;;7.30;99.90;;;7.79;100.00;98064.41;5049579;28;20524;-79
2023/12/28 06:14:53;;;;;;;2.83;2.50;;;7.40;99.90;;;7.81;100.00;98072.88;5049536;28;20469;-79
2023/12/28 06:17:21;;;;;;;3.07;2.77;;;7.40;99.90;;;7.83;100.00;98081.31;5050332;28;20520;-79
2023/12/28 06:19:50;;;;;;;6.20;2.37;;;7.40;99.90;;;7.86;100.00;98076.56;5050618;28;20556;-79
2023/12/28 06:22:21;;;;;;;2.97;2.40;;;7.40;99.90;;;7.88;100.00;98073.81;5047969;28;20476;-79
2023/12/28 06:24:49;;;;;;;3.10;2.30;;;7.40;99.90;;;7.90;100.00;98077.06;5048772;28;22437;-79
2023/12/28 06:27:18;;;;;;;3.13;2.23;;;7.40;99.90;;;7.88;100.00;98069.41;5048003;28;20465;-79
2023/12/28 06:29:46;;;;;;;5.00;2.70;;;7.50;99.90;;;7.92;100.00;98075.91;5048351;28;20468;-78
2023/12/28 06:32:15;;;;;;;2.77;2.20;;;7.50;99.90;;;7.92;100.00;98077.69;5049638;28;20472;-79
2023/12/28 06:34:43;;;;;;;2.90;2.30;;;7.50;99.90;;;7.93;100.00;98074.09;5049384;28;20846;-79
2023/12/28 06:37:12;;;;;;;3.13;2.30;;;7.50;99.90;;;7.95;100.00;98085.97;5050329;28;20525;-79
2023/12/28 06:39:42;;;;;;;6.07;2.23;;;7.50;99.90;;;7.96;100.00;98095.41;5048263;28;20492;-79
2023/12/28 06:42:11;;;;;;;2.93;2.20;;;7.50;99.90;;;7.97;100.00;98098.81;5045688;28;20472;-78
2023/12/28 06:44:39;;;;;;;3.30;2.00;;;7.50;99.90;;;7.99;100.00;98094.25;5048999;28;20555;-78
2023/12/28 06:47:08;;;;;;;4.07;2.03;;;7.50;99.90;;;8.00;100.00;98093.28;5048207;28;20994;-78
2023/12/28 06:49:36;;;;;;;5.70;2.70;;;7.50;99.90;;;8.01;100.00;98097.50;5048030;28;20473;-79
2023/12/28 06:52:05;;;;;;;5.07;2.30;;;7.50;99.90;;;8.03;100.00;98096.34;5049910;28;20553;-78
2023/12/28 06:54:34;;;;;;;3.30;3.00;;;7.50;99.90;;;8.04;100.00;98099.78;5048408;28;20508;-79
2023/12/28 06:57:05;;;;;;;12.20;3.10;;;7.50;99.90;;;8.06;100.00;98103.00;5050883;28;20495;-79
2023/12/28 06:59:33;;;;;;;6.50;2.67;;;7.50;99.90;;;8.05;100.00;98102.19;5050729;28;20461;-78
2023/12/28 07:02:02;;;;;;;2.73;1.90;;;7.60;99.90;;;8.07;100.00;98099.44;5051178;28;20468;-79
2023/12/28 07:04:32;;;;;;;2.83;2.03;;;7.60;99.90;;;8.09;100.00;98107.88;5048565;28;20475;-79
2023/12/28 07:07:01;;;;;;;2.90;2.00;;;7.70;99.90;;;8.11;100.00;98105.94;5047654;28;20476;-78
2023/12/28 07:09:30;;;;;;;7.17;2.20;;;7.70;99.90;;;8.14;100.00;98116.00;5049679;28;21686;-79
2023/12/28 07:11:59;;;;;;;2.50;1.80;;;7.70;99.90;;;8.17;100.00;98107.03;5048717;28;20999;-79
2023/12/28 07:14:29;;;;;;;4.30;2.40;;;7.70;99.90;;;8.16;100.00;98111.44;5046528;28;20453;-79
2023/12/28 07:16:58;;;;;;;2.73;2.00;;;7.80;99.90;;;8.19;100.00;98107.69;5050575;28;20476;-78
2023/12/28 07:19:27;;;;;;;4.70;2.20;;;7.80;99.90;;;8.19;100.00;98099.88;5050027;28;20537;-78
2023/12/28 07:21:56;;;;;;;4.40;2.00;;;7.80;99.90;;;8.20;100.00;98104.91;5046830;28;20464;-78
2023/12/28 07:24:25;;;;;;;2.17;1.80;;;7.80;99.90;;;8.24;100.00;98106.19;5047875;28;20550;-79
2023/12/28 07:26:53;;;;;;;6.53;2.13;;;7.70;99.90;;;8.23;100.00;98099.34;5046166;28;20465;-78
2023/12/28 07:29:22;;;;;;;2.43;1.73;;;7.70;99.90;;;8.25;100.00;98102.59;5047941;28;20460;-79
2023/12/28 07:31:56;;;;;;;3.77;2.20;;;7.80;99.90;;;8.23;100.00;98107.16;5045812;28;20465;-78
2023/12/28 07:34:25;;;;;;;1.97;1.73;;;7.80;99.90;;;8.25;100.00;98107.81;5047575;28;20461;-79
2023/12/28 07:36:54;;;;;;;4.30;1.77;;;7.80;99.90;;;8.27;100.00;98103.22;5047024;28;20461;-78
2023/12/28 07:39:22;;;;;;;4.53;2.10;;;7.80;99.90;;;8.22;100.00;98095.13;5046727;28;20497;-78
2023/12/28 07:41:51;;;;;;;2.60;1.53;;;7.80;99.90;;;8.26;100.00;98104.22;5046411;28;20541;-79
2023/12/28 07:44:19;;;;;;;3.37;1.93;;;7.80;99.90;;;8.26;100.00;98104.22;5048488;28;20457;-79
2023/12/28 07:46:48;;;;;;;3.90;2.23;;;7.80;99.90;;;8.28;100.00;98111.88;5045635;28;20471;-78
2023/12/28 07:49:18;;;;;;;4.67;1.63;;;7.80;99.90;;;8.26;100.00;98114.63;5047801;28;20465;-78
2023/12/28 07:51:47;;;;;;;2.73;1.80;;;7.80;99.90;;;8.26;100.00;98125.03;5049193;28;20508;-78
2023/12/28 07:54:16;;;;;;;3.00;1.70;;;7.80;99.90;;;8.27;100.00;98125.88;5048454;28;20465;-78
2023/12/28 07:56:45;;;;;;;2.87;1.93;;;7.80;99.90;;;8.27;100.00;98131.06;5048604;28;20473;-79
2023/12/28 07:59:13;;;;;;;2.50;1.73;;;7.90;99.90;;;8.28;100.00;98128.34;5047350;28;20489;-78
2023/12/28 08:01:42;;;;;;;2.30;1.77;;;7.80;99.90;;;8.27;100.00;98116.25;5046954;28;20998;-78
2023/12/28 08:04:10;;;;;;;4.70;1.83;;;7.90;99.90;;;8.29;100.00;98123.94;5048762;28;20464;-79
2023/12/28 08:06:41;;;;;;;5.53;1.77;;;7.90;99.90;;;8.31;100.00;98133.22;5048978;28;20456;-78
2023/12/28 08:09:09;;;;;;;4.10;1.70;;;7.90;99.90;;;8.31;100.00;98133.22;5050122;28;20456;-78
2023/12/28 08:11:38;;;;;;;3.73;1.70;;;7.90;99.90;;;8.33;100.00;98123.41;5049301;28;20605;-79
2023/12/28 08:14:07;;;;;;;3.93;1.80;;;7.90;99.90;;;8.34;100.00;98111.22;5047920;28;20602;-79
2023/12/28 08:16:36;;;;;;;4.17;1.60;;;7.90;99.90;;;8.31;100.00;98116.75;5049707;28;20457;-79
2023/12/28 08:19:04;;;;;;;3.63;1.67;;;7.90;99.90;;;8.34;100.00;98122.44;5045767;28;20508;-78
2023/12/28 08:21:33;;;;;;;1.93;1.73;;;7.90;99.90;;;8.36;100.00;98125.72;5044151;28;20461;-79
2023/12/28 08:24:04;;;;;;;2.23;1.87;;;7.80;99.90;;;8.37;100.00;98116.88;5047856;28;20460;-79
2023/12/28 08:26:33;;;;;;;3.73;1.57;;;7.90;99.90;;;8.40;100.00;98131.38;5047333;28;21006;-78
2023/12/28 08:29:02;;;;;;;2.57;1.77;;;8.00;99.90;;;8.41;100.00;98126.00;5045672;28;20468;-79
2023/12/28 08:31:30;;;;;;;2.80;1.70;;;8.00;99.90;;;8.43;100.00;98131.84;5045469;28;20485;-78
2023/12/28 08:33:59;;;;;;;8.50;2.03;;;8.00;99.90;;;8.45;100.00;98129.06;5054006;28;20455;-79
2023/12/28 08:36:28;;;;;;;4.93;1.87;;;8.00;99.90;;;8.44;100.00;98123.03;5051969;28;20517;-78
2023/12/28 08:38:56;;;;;;;3.30;2.17;;;8.10;99.90;;;8.46;100.00;98118.47;5049322;28;20515;-78
2023/12/28 08:41:26;;;;;;;1.97;1.77;;;8.00;99.90;;;8.47;100.00;98127.91;5048858;28;20464;-78
2023/12/28 08:43:55;;;;;;;5.93;1.93;;;8.00;99.90;;;8.49;100.00;98119.94;5051273;28;20980;-78
2023/12/28 08:46:25;;;;;;;3.90;1.90;;;8.00;99.90;;;8.52;100.00;98114.38;5051458;28;20972;-79
2023/12/28 08:48:54;;;;;;;2.47;1.50;;;8.10;99.90;;;8.52;100.00;98120.41;5052039;28;20460;-79
2023/12/28 08:51:23;;;;;;;2.77;2.10;;;8.10;99.90;;;8.55;100.00;98132.25;5051448;28;20558;-77
2023/12/28 08:53:52;;;;;;;4.10;2.30;;;8.20;99.90;;;8.57;100.00;98138.91;5053097;28;20959;-78
2023/12/28 08:56:23;;;;;;;3.20;1.87;;;8.10;99.90;;;8.57;100.00;98138.91;5048512;28;20467;-78
2023/12/28 08:58:54;;;;;;;3.37;1.90;;;8.20;99.90;;;8.60;100.00;98137.78;5053936;28;20488;-79
2023/12/28 09:01:25;;;;;;;2.13;1.60;;;8.20;99.90;;;8.62;100.00;98133.19;5050287;28;21118;-78
2023/12/28 09:03:55;;;;;;;4.70;1.70;;;8.20;99.90;;;8.65;100.00;98132.03;5049837;28;20553;-79
2023/12/28 09:06:24;;;;;;;1.97;1.77;;;8.20;99.90;;;8.65;100.00;98137.25;5050384;28;20461;-78
2023/12/28 09:08:53;;;;;;;4.33;1.60;;;8.20;99.90;;;8.67;100.00;98148.31;5050835;28;20479;-79
2023/12/28 09:11:22;;;;;;;3.77;1.40;;;8.20;99.90;;;8.70;100.00;98134.94;5047708;28;20452;-79
2023/12/28 09:13:52;;;;;;;3.30;2.10;;;8.20;99.90;;;8.73;100.00;98139.81;5049770;28;20469;-79
2023/12/28 09:16:21;;;;;;;3.33;1.70;;;8.30;99.90;;;8.75;100.00;98140.44;5051656;28;20944;-79
2023/12/28 09:18:49;;;;;;;1.67;1.57;;;8.30;99.90;;;8.79;100.00;98144.31;5049048;28;20875;-78
2023/12/28 09:21:18;;;;;;;1.77;1.40;;;8.30;99.90;;;8.78;100.00;98148.72;5048859;28;20548;-78
2023/12/28 09:23:47;;;;;;;2.63;1.87;;;8.40;99.90;;;8.77;100.00;98149.72;5051380;28;20892;-78
2023/12/28 09:26:15;;;;;;;3.33;1.93;;;8.40;99.90;;;8.80;100.00;98151.16;5051188;28;20456;-78
2023/12/28 09:28:45;;;;;;;5.10;2.13;;;8.40;99.90;;;8.81;100.00;98165.84;5049705;28;20472;-78
2023/12/28 09:31:15;;;;;;;4.03;2.20;;;8.40;99.90;;;8.82;100.00;98151.78;5048658;28;20457;-78
2023/12/28 09:33:45;;;;;;;4.57;1.63;;;8.40;99.90;;;8.84;100.00;98166.31;5050642;28;20468;-78
2023/12/28 09:36:14;;;;;;;2.23;1.90;;;8.40;99.90;;;8.83;100.00;98174.28;5050776;28;20464;-78
2023/12/28 09:38:42;;;;;;;4.77;1.90;;;8.40;99.90;;;8.83;100.00;98180.31;5051194;28;20496;-78
2023/12/28 09:41:15;;;;;;;3.57;1.90;;;8.50;99.90;;;8.84;100.00;98187.16;5048170;28;20822;-78
2023/12/28 09:43:55;;;;;;;3.47;2.07;;;8.50;99.90;;;8.85;100.00;98187.97;5052250;28;20567;-78
2023/12/28 09:46:27;;;;;;;4.33;1.80;;;8.50;99.90;;;8.83;100.00;98179.50;5049564;28;20461;-77
2023/12/28 09:48:57;;;;;;;2.17;1.80;;;8.50;99.90;;;8.79;100.00;98173.00;5051502;28;20546;-79
2023/12/28 09:51:26;;;;;;;3.00;1.50;;;8.30;99.90;;;8.83;100.00;98175.09;5048824;28;20465;-79
2023/12/28 09:53:55;;;;;;;2.13;1.63;;;8.40;99.90;;;8.83;100.00;98176.91;5048579;28;20472;-78
2023/12/28 09:56:24;;;;;;;4.77;1.70;;;8.30;99.90;;;8.84;100.00;98168.09;5048040;28;20553;-78
2023/12/28 09:58:59;;;;;;;3.00;1.70;;;8.40;99.90;;;8.85;100.00;98167.13;5051386;28;20516;-78
2023/12/28 10:01:29;;;;;;;6.23;2.20;;;8.50;99.90;;;8.87;100.00;98180.78;5049729;28;20828;-78
2023/12/28 10:03:58;;;;;;;3.90;2.00;;;8.40;99.90;;;8.89;100.00;98173.59;5049112;28;20484;-79
2023/12/28 10:06:27;;;;;;;3.43;1.80;;;8.40;99.90;;;8.91;100.00;98163.81;5047073;28;20457;-77
2023/12/28 10:08:56;;;;;;;2.93;1.97;;;8.40;99.90;;;8.94;100.00;98166.88;5049888;28;20484;-78
2023/12/28 10:11:26;;;;;;;2.20;1.53;;;8.50;99.90;;;8.95;100.00;98159.88;5048679;28;20476;-78
2023/12/28 10:13:55;;;;;;;7.17;2.50;;;8.60;99.90;;;8.94;100.00;98169.50;5049976;28;20484;-78
2023/12/28 10:16:23;;;;;;;2.27;1.60;;;8.50;99.90;;;8.98;100.00;98176.00;5048408;28;20468;-79
2023/12/28 10:18:53;;;;;;;5.00;2.00;;;8.50;99.90;;;8.97;100.00;98176.16;5051300;28;20465;-79
2023/12/28 10:21:24;;;;;;;8.33;2.13;;;8.60;99.90;;;9.00;100.00;98181.84;5047100;28;20458;-79
2023/12/28 10:23:53;;;;;;;2.40;2.00;;;8.50;99.90;;;9.03;100.00;98178.06;5047644;28;21535;-79
2023/12/28 10:26:22;;;;;;;6.10;1.53;;;8.60;99.90;;;9.06;100.00;98172.50;5047744;28;20469;-79
2023/12/28 10:28:58;;;;;;;3.83;2.13;;;8.70;99.90;;;9.06;100.00;98167.28;5046962;28;21225;-78
2023/12/28 10:31:26;;;;;;;1.73;1.30;;;8.70;99.90;;;9.06;100.00;98170.69;5046394;28;20472;-79
2023/12/28 10:34:01;;;;;;;3.93;2.20;;;8.80;99.90;;;9.11;100.00;98157.16;5049516;28;20461;-79